sensor_id;sensor_type;location;lat;lon;timestamp;temperature;humidity
51337;DHT22;37421;51.176;17.196;2022-11-15T00:01:38;17.10;99.90
51337;DHT22;37421;51.176;17.196;2022-11-15T00:04:04;17.10;99.90
51337;DHT22;37421;51.176;17.196;2022-11-15T00:06:33;17.00;99.90
51337;DHT22;37421;51.176;17.196;2022-11-15T00:09:03;17.00;99.90
51337;DHT22;37421;51.176;17.196;2022-11-15T00:11:28;17.00;99.90
51337;DHT22;37421;51.176;17.196;2022-11-15T00:13:56;17.00;99.90
51337;DHT22;37421;51.176;17.196;2022-11-15T00:16:24;16.90;99.90
51337;DHT22;37421;51.176;17.196;2022-11-15T00:18:56;16.90;99.90
51337;DHT22;37421;51.176;17.196;2022-11-15T00:21:23;16.90;99.90
51337;DHT22;37421;51.176;17.196;2022-11-15T00:23:49;16.90;99.90
51337;DHT22;37421;51.176;17.196;2022-11-15T00:26:15;16.90;99.90
51337;DHT22;37421;51.176;17.196;2022-11-15T00:28:41;16.90;99.90
51337;DHT22;37421;51.176;17.196;2022-11-15T00:31:12;16.90;99.90
51337;DHT22;37421;51.176;17.196;2022-11-15T00:33:38;17.00;99.90
51337;DHT22;37421;51.176;17.196;2022-11-15T00:36:06;17.00;99.90
51337;DHT22;37421;51.176;17.196;2022-11-15T00:38:39;17.10;99.90
51337;DHT22;37421;51.176;17.196;2022-11-15T00:41:07;17.10;99.90
51337;DHT22;37421;51.176;17.196;2022-11-15T00:43:37;17.20;99.90
51337;DHT22;37421;51.176;17.196;2022-11-15T00:46:05;17.20;99.90
51337;DHT22;37421;51.176;17.196;2022-11-15T00:48:33;17.20;99.90
51337;DHT22;37421;51.176;17.196;2022-11-15T00:51:02;17.30;99.90
51337;DHT22;37421;51.176;17.196;2022-11-15T00:53:28;17.30;99.90
51337;DHT22;37421;51.176;17.196;2022-11-15T00:55:54;17.30;99.90
51337;DHT22;37421;51.176;17.196;2022-11-15T00:58:24;17.30;99.90
51337;DHT22;37421;51.176;17.196;2022-11-15T01:00:52;17.30;99.90
51337;DHT22;37421;51.176;17.196;2022-11-15T01:03:18;17.30;99.90
51337;DHT22;37421;51.176;17.196;2022-11-15T01:05:44;17.30;99.90
51337;DHT22;37421;51.176;17.196;2022-11-15T01:08:15;17.30;99.90
51337;DHT22;37421;51.176;17.196;2022-11-15T01:10:43;17.30;99.90
51337;DHT22;37421;51.176;17.196;2022-11-15T01:13:12;17.30;99.90
51337;DHT22;37421;51.176;17.196;2022-11-15T01:15:43;17.30;99.90
51337;DHT22;37421;51.176;17.196;2022-11-15T01:18:09;17.30;99.90
51337;DHT22;37421;51.176;17.196;2022-11-15T01:20:40;17.30;99.90
51337;DHT22;37421;51.176;17.196;2022-11-15T01:23:07;17.30;99.90
51337;DHT22;37421;51.176;17.196;2022-11-15T01:25:32;17.30;99.90
51337;DHT22;37421;51.176;17.196;2022-11-15T01:27:59;17.30;99.90
51337;DHT22;37421;51.176;17.196;2022-11-15T01:30:24;17.30;99.90
51337;DHT22;37421;51.176;17.196;2022-11-15T01:32:50;17.30;99.90
51337;DHT22;37421;51.176;17.196;2022-11-15T01:35:16;17.20;99.90
51337;DHT22;37421;51.176;17.196;2022-11-15T01:37:45;17.30;99.90
51337;DHT22;37421;51.176;17.196;2022-11-15T01:40:11;17.30;99.90
51337;DHT22;37421;51.176;17.196;2022-11-15T01:42:37;17.20;99.90
51337;DHT22;37421;51.176;17.196;2022-11-15T01:45:05;17.30;99.90
51337;DHT22;37421;51.176;17.196;2022-11-15T01:47:39;17.30;99.90
51337;DHT22;37421;51.176;17.196;2022-11-15T01:50:12;17.30;99.90
51337;DHT22;37421;51.176;17.196;2022-11-15T01:52:45;17.20;99.90
51337;DHT22;37421;51.176;17.196;2022-11-15T01:55:22;17.20;99.90
51337;DHT22;37421;51.176;17.196;2022-11-15T01:57:57;17.20;99.90
51337;DHT22;37421;51.176;17.196;2022-11-15T02:00:23;17.60;99.90
51337;DHT22;37421;51.176;17.196;2022-11-15T02:02:52;18.70;99.90
51337;DHT22;37421;51.176;17.196;2022-11-15T02:05:30;18.90;99.90
51337;DHT22;37421;51.176;17.196;2022-11-15T02:07:57;18.40;99.90
51337;DHT22;37421;51.176;17.196;2022-11-15T02:10:24;17.80;99.90
51337;DHT22;37421;51.176;17.196;2022-11-15T02:12:54;17.50;99.90
51337;DHT22;37421;51.176;17.196;2022-11-15T02:15:24;17.40;99.90
51337;DHT22;37421;51.176;17.196;2022-11-15T02:20:39;17.30;99.90
51337;DHT22;37421;51.176;17.196;2022-11-15T02:23:49;17.20;99.90
51337;DHT22;37421;51.176;17.196;2022-11-15T02:26:30;17.20;99.90
51337;DHT22;37421;51.176;17.196;2022-11-15T02:35:04;17.20;99.90
51337;DHT22;37421;51.176;17.196;2022-11-15T02:43:10;17.20;99.90
51337;DHT22;37421;51.176;17.196;2022-11-15T02:46:02;17.10;99.90
51337;DHT22;37421;51.176;17.196;2022-11-15T02:48:31;17.20;99.90
51337;DHT22;37421;51.176;17.196;2022-11-15T02:51:18;17.20;99.90
51337;DHT22;37421;51.176;17.196;2022-11-15T02:53:44;17.20;99.90
51337;DHT22;37421;51.176;17.196;2022-11-15T02:56:16;17.20;99.90
51337;DHT22;37421;51.176;17.196;2022-11-15T03:01:43;18.00;99.90
51337;DHT22;37421;51.176;17.196;2022-11-15T03:04:37;18.50;99.90
51337;DHT22;37421;51.176;17.196;2022-11-15T03:07:13;18.50;99.20
51337;DHT22;37421;51.176;17.196;2022-11-15T03:12:30;18.40;99.70
51337;DHT22;37421;51.176;17.196;2022-11-15T03:15:09;18.50;99.10
51337;DHT22;37421;51.176;17.196;2022-11-15T03:17:43;18.50;99.10
51337;DHT22;37421;51.176;17.196;2022-11-15T03:20:16;18.60;99.20
51337;DHT22;37421;51.176;17.196;2022-11-15T03:22:47;18.40;99.30
51337;DHT22;37421;51.176;17.196;2022-11-15T03:25:22;18.50;99.20
51337;DHT22;37421;51.176;17.196;2022-11-15T03:27:55;18.50;99.80
51337;DHT22;37421;51.176;17.196;2022-11-15T03:30:26;18.50;99.20
51337;DHT22;37421;51.176;17.196;2022-11-15T03:32:57;18.50;98.70
51337;DHT22;37421;51.176;17.196;2022-11-15T03:35:27;18.50;98.30
51337;DHT22;37421;51.176;17.196;2022-11-15T03:40:53;18.40;98.30
51337;DHT22;37421;51.176;17.196;2022-11-15T03:43:50;18.40;98.00
51337;DHT22;37421;51.176;17.196;2022-11-15T03:46:30;18.50;99.30
51337;DHT22;37421;51.176;17.196;2022-11-15T03:49:09;18.50;98.70
51337;DHT22;37421;51.176;17.196;2022-11-15T03:51:38;18.50;98.00
51337;DHT22;37421;51.176;17.196;2022-11-15T03:54:04;18.50;98.10
51337;DHT22;37421;51.176;17.196;2022-11-15T03:56:33;18.40;98.20
51337;DHT22;37421;51.176;17.196;2022-11-15T03:59:02;18.30;98.60
51337;DHT22;37421;51.176;17.196;2022-11-15T04:01:28;18.50;98.20
51337;DHT22;37421;51.176;17.196;2022-11-15T04:03:57;18.50;97.90
51337;DHT22;37421;51.176;17.196;2022-11-15T04:06:26;18.50;97.70
51337;DHT22;37421;51.176;17.196;2022-11-15T04:08:52;18.50;97.90
51337;DHT22;37421;51.176;17.196;2022-11-15T04:11:24;18.40;98.40
51337;DHT22;37421;51.176;17.196;2022-11-15T04:13:50;18.40;98.50
51337;DHT22;37421;51.176;17.196;2022-11-15T04:16:19;18.30;97.80
51337;DHT22;37421;51.176;17.196;2022-11-15T04:18:49;18.30;97.60
51337;DHT22;37421;51.176;17.196;2022-11-15T04:21:35;18.30;97.80
51337;DHT22;37421;51.176;17.196;2022-11-15T04:24:20;18.30;97.80
51337;DHT22;37421;51.176;17.196;2022-11-15T04:26:48;18.30;97.90
51337;DHT22;37421;51.176;17.196;2022-11-15T04:29:19;18.20;97.70
51337;DHT22;37421;51.176;17.196;2022-11-15T04:32:02;18.10;97.90
51337;DHT22;37421;51.176;17.196;2022-11-15T04:34:28;18.20;98.00
51337;DHT22;37421;51.176;17.196;2022-11-15T04:36:54;18.10;97.50
51337;DHT22;37421;51.176;17.196;2022-11-15T04:39:43;18.10;97.80
51337;DHT22;37421;51.176;17.196;2022-11-15T04:42:12;18.10;97.40
51337;DHT22;37421;51.176;17.196;2022-11-15T04:44:44;18.10;97.60
51337;DHT22;37421;51.176;17.196;2022-11-15T04:47:10;18.00;98.20
51337;DHT22;37421;51.176;17.196;2022-11-15T04:49:41;18.10;97.80
51337;DHT22;37421;51.176;17.196;2022-11-15T04:52:09;18.00;97.40
51337;DHT22;37421;51.176;17.196;2022-11-15T04:54:39;18.00;97.50
51337;DHT22;37421;51.176;17.196;2022-11-15T04:57:08;18.00;97.60
51337;DHT22;37421;51.176;17.196;2022-11-15T04:59:38;17.90;97.70
51337;DHT22;37421;51.176;17.196;2022-11-15T05:02:09;17.90;97.40
51337;DHT22;37421;51.176;17.196;2022-11-15T05:04:41;17.90;98.20
51337;DHT22;37421;51.176;17.196;2022-11-15T05:07:10;17.90;98.10
51337;DHT22;37421;51.176;17.196;2022-11-15T05:09:36;17.90;98.00
51337;DHT22;37421;51.176;17.196;2022-11-15T05:12:05;17.90;97.40
51337;DHT22;37421;51.176;17.196;2022-11-15T05:14:38;17.80;97.30
51337;DHT22;37421;51.176;17.196;2022-11-15T05:17:07;17.70;97.60
51337;DHT22;37421;51.176;17.196;2022-11-15T05:19:33;17.70;97.60
51337;DHT22;37421;51.176;17.196;2022-11-15T05:22:03;17.80;97.10
51337;DHT22;37421;51.176;17.196;2022-11-15T05:24:33;17.90;96.80
51337;DHT22;37421;51.176;17.196;2022-11-15T05:26:59;17.90;96.90
51337;DHT22;37421;51.176;17.196;2022-11-15T05:29:31;18.00;96.70
51337;DHT22;37421;51.176;17.196;2022-11-15T05:32:06;17.80;97.30
51337;DHT22;37421;51.176;17.196;2022-11-15T05:34:32;17.90;96.90
51337;DHT22;37421;51.176;17.196;2022-11-15T05:37:03;17.90;97.30
51337;DHT22;37421;51.176;17.196;2022-11-15T05:39:31;17.90;97.60
51337;DHT22;37421;51.176;17.196;2022-11-15T05:42:09;17.70;97.70
51337;DHT22;37421;51.176;17.196;2022-11-15T05:44:36;17.80;97.70
51337;DHT22;37421;51.176;17.196;2022-11-15T05:47:08;17.80;97.40
51337;DHT22;37421;51.176;17.196;2022-11-15T05:49:40;17.80;98.00
51337;DHT22;37421;51.176;17.196;2022-11-15T05:52:12;17.90;97.90
51337;DHT22;37421;51.176;17.196;2022-11-15T05:54:51;18.10;97.00
51337;DHT22;37421;51.176;17.196;2022-11-15T05:57:18;18.10;96.30
51337;DHT22;37421;51.176;17.196;2022-11-15T05:59:44;18.20;96.10
51337;DHT22;37421;51.176;17.196;2022-11-15T06:02:11;18.20;96.10
51337;DHT22;37421;51.176;17.196;2022-11-15T06:04:39;18.10;96.40
51337;DHT22;37421;51.176;17.196;2022-11-15T06:07:13;18.20;96.20
51337;DHT22;37421;51.176;17.196;2022-11-15T06:09:43;18.20;96.00
51337;DHT22;37421;51.176;17.196;2022-11-15T06:12:15;18.20;96.10
51337;DHT22;37421;51.176;17.196;2022-11-15T06:14:44;18.30;95.80
51337;DHT22;37421;51.176;17.196;2022-11-15T06:17:10;18.30;95.50
51337;DHT22;37421;51.176;17.196;2022-11-15T06:20:06;18.20;95.40
51337;DHT22;37421;51.176;17.196;2022-11-15T06:22:41;18.20;95.40
51337;DHT22;37421;51.176;17.196;2022-11-15T06:25:12;18.30;95.10
51337;DHT22;37421;51.176;17.196;2022-11-15T06:27:38;18.30;95.10
51337;DHT22;37421;51.176;17.196;2022-11-15T06:30:33;18.30;94.80
51337;DHT22;37421;51.176;17.196;2022-11-15T06:33:13;18.30;95.10
51337;DHT22;37421;51.176;17.196;2022-11-15T06:35:45;18.40;95.50
51337;DHT22;37421;51.176;17.196;2022-11-15T06:38:24;18.40;96.10
51337;DHT22;37421;51.176;17.196;2022-11-15T06:41:06;18.40;96.20
51337;DHT22;37421;51.176;17.196;2022-11-15T06:43:42;18.40;95.70
51337;DHT22;37421;51.176;17.196;2022-11-15T06:46:12;18.40;95.60
51337;DHT22;37421;51.176;17.196;2022-11-15T06:48:42;18.20;97.10
51337;DHT22;37421;51.176;17.196;2022-11-15T06:51:19;18.20;97.60
51337;DHT22;37421;51.176;17.196;2022-11-15T06:53:57;18.30;97.50
51337;DHT22;37421;51.176;17.196;2022-11-15T06:56:28;18.40;98.00
51337;DHT22;37421;51.176;17.196;2022-11-15T06:59:00;18.30;98.10
51337;DHT22;37421;51.176;17.196;2022-11-15T07:01:41;18.20;98.00
51337;DHT22;37421;51.176;17.196;2022-11-15T07:04:07;18.20;98.60
51337;DHT22;37421;51.176;17.196;2022-11-15T07:06:37;18.20;98.80
51337;DHT22;37421;51.176;17.196;2022-11-15T07:09:10;18.40;98.60
51337;DHT22;37421;51.176;17.196;2022-11-15T07:11:47;18.40;98.90
51337;DHT22;37421;51.176;17.196;2022-11-15T07:14:43;18.40;99.90
51337;DHT22;37421;51.176;17.196;2022-11-15T07:17:14;18.50;99.70
51337;DHT22;37421;51.176;17.196;2022-11-15T07:19:48;18.50;99.60
51337;DHT22;37421;51.176;17.196;2022-11-15T07:22:38;18.40;99.90
51337;DHT22;37421;51.176;17.196;2022-11-15T07:25:16;18.50;99.90
51337;DHT22;37421;51.176;17.196;2022-11-15T07:28:15;18.50;99.90
51337;DHT22;37421;51.176;17.196;2022-11-15T07:30:46;18.50;99.90
51337;DHT22;37421;51.176;17.196;2022-11-15T07:36:44;18.60;99.90
51337;DHT22;37421;51.176;17.196;2022-11-15T07:39:15;18.60;99.90
51337;DHT22;37421;51.176;17.196;2022-11-15T07:41:45;18.60;99.90
51337;DHT22;37421;51.176;17.196;2022-11-15T07:44:34;18.70;99.90
51337;DHT22;37421;51.176;17.196;2022-11-15T07:47:08;18.80;99.90
51337;DHT22;37421;51.176;17.196;2022-11-15T07:49:50;18.90;99.90
51337;DHT22;37421;51.176;17.196;2022-11-15T07:52:41;18.80;99.90
51337;DHT22;37421;51.176;17.196;2022-11-15T07:55:16;18.90;99.90
51337;DHT22;37421;51.176;17.196;2022-11-15T07:58:32;18.90;99.90
51337;DHT22;37421;51.176;17.196;2022-11-15T08:01:09;18.80;99.90
51337;DHT22;37421;51.176;17.196;2022-11-15T08:39:03;18.90;99.90
51337;DHT22;37421;51.176;17.196;2022-11-15T08:41:37;18.90;99.90
51337;DHT22;37421;51.176;17.196;2022-11-15T08:50:04;19.00;99.90
51337;DHT22;37421;51.176;17.196;2022-11-15T08:52:38;18.90;99.90
51337;DHT22;37421;51.176;17.196;2022-11-15T08:55:26;19.00;99.90
51337;DHT22;37421;51.176;17.196;2022-11-15T09:01:21;18.90;99.90
51337;DHT22;37421;51.176;17.196;2022-11-15T09:03:53;18.90;99.90
51337;DHT22;37421;51.176;17.196;2022-11-15T09:06:32;18.90;99.90
51337;DHT22;37421;51.176;17.196;2022-11-15T09:09:16;19.00;99.90
51337;DHT22;37421;51.176;17.196;2022-11-15T09:14:55;19.10;99.90
51337;DHT22;37421;51.176;17.196;2022-11-15T09:17:31;19.10;99.90
51337;DHT22;37421;51.176;17.196;2022-11-15T09:20:18;19.10;99.90
51337;DHT22;37421;51.176;17.196;2022-11-15T09:26:04;19.10;99.90
51337;DHT22;37421;51.176;17.196;2022-11-15T09:28:59;19.10;99.90
51337;DHT22;37421;51.176;17.196;2022-11-15T09:35:19;19.20;99.90
51337;DHT22;37421;51.176;17.196;2022-11-15T09:37:48;19.20;99.90
51337;DHT22;37421;51.176;17.196;2022-11-15T09:40:16;19.20;99.90
51337;DHT22;37421;51.176;17.196;2022-11-15T09:49:02;19.30;99.90
51337;DHT22;37421;51.176;17.196;2022-11-15T09:51:47;19.30;99.90
51337;DHT22;37421;51.176;17.196;2022-11-15T09:54:37;19.40;99.90
51337;DHT22;37421;51.176;17.196;2022-11-15T10:00:42;19.40;99.90
51337;DHT22;37421;51.176;17.196;2022-11-15T10:03:34;19.30;99.90
51337;DHT22;37421;51.176;17.196;2022-11-15T10:06:35;19.30;99.90
51337;DHT22;37421;51.176;17.196;2022-11-15T10:09:25;19.40;99.90
51337;DHT22;37421;51.176;17.196;2022-11-15T10:12:21;19.50;99.90
51337;DHT22;37421;51.176;17.196;2022-11-15T10:14:57;19.50;99.90
51337;DHT22;37421;51.176;17.196;2022-11-15T10:18:05;19.50;99.90
51337;DHT22;37421;51.176;17.196;2022-11-15T10:23:36;19.50;99.90
51337;DHT22;37421;51.176;17.196;2022-11-15T10:26:09;19.50;99.90
51337;DHT22;37421;51.176;17.196;2022-11-15T10:28:50;19.60;99.90
51337;DHT22;37421;51.176;17.196;2022-11-15T10:31:32;19.70;99.90
51337;DHT22;37421;51.176;17.196;2022-11-15T10:34:20;19.60;99.90
51337;DHT22;37421;51.176;17.196;2022-11-15T10:43:17;19.70;99.90
51337;DHT22;37421;51.176;17.196;2022-11-15T10:46:23;19.70;99.90
51337;DHT22;37421;51.176;17.196;2022-11-15T10:49:05;19.70;99.90
51337;DHT22;37421;51.176;17.196;2022-11-15T10:55:40;19.80;99.90
51337;DHT22;37421;51.176;17.196;2022-11-15T10:58:49;19.70;99.90
51337;DHT22;37421;51.176;17.196;2022-11-15T11:01:29;19.80;99.90
51337;DHT22;37421;51.176;17.196;2022-11-15T11:04:13;19.80;99.90
51337;DHT22;37421;51.176;17.196;2022-11-15T11:07:37;19.80;99.90
51337;DHT22;37421;51.176;17.196;2022-11-15T11:10:24;19.80;99.90
51337;DHT22;37421;51.176;17.196;2022-11-15T11:12:53;19.90;99.90
51337;DHT22;37421;51.176;17.196;2022-11-15T11:15:38;20.00;99.90
51337;DHT22;37421;51.176;17.196;2022-11-15T11:27:09;20.40;99.90
51337;DHT22;37421;51.176;17.196;2022-11-15T11:33:13;20.40;99.90
51337;DHT22;37421;51.176;17.196;2022-11-15T12:05:44;20.70;99.90
51337;DHT22;37421;51.176;17.196;2022-11-15T12:08:40;20.70;99.90
51337;DHT22;37421;51.176;17.196;2022-11-15T12:13:53;20.70;99.90
51337;DHT22;37421;51.176;17.196;2022-11-15T12:16:46;20.80;99.90
51337;DHT22;37421;51.176;17.196;2022-11-15T12:19:23;20.80;99.90
51337;DHT22;37421;51.176;17.196;2022-11-15T12:22:23;20.80;99.90
51337;DHT22;37421;51.176;17.196;2022-11-15T12:25:01;20.90;99.90
51337;DHT22;37421;51.176;17.196;2022-11-15T12:27:56;21.10;99.90
51337;DHT22;37421;51.176;17.196;2022-11-15T12:33:54;21.10;99.90
51337;DHT22;37421;51.176;17.196;2022-11-15T12:41:33;21.00;99.90
51337;DHT22;37421;51.176;17.196;2022-11-15T12:44:04;21.00;99.90
51337;DHT22;37421;51.176;17.196;2022-11-15T12:52:09;21.00;99.90
51337;DHT22;37421;51.176;17.196;2022-11-15T13:03:32;20.60;99.90
51337;DHT22;37421;51.176;17.196;2022-11-15T13:06:52;20.40;99.90
51337;DHT22;37421;51.176;17.196;2022-11-15T13:18:40;19.60;99.90
51337;DHT22;37421;51.176;17.196;2022-11-15T13:21:50;19.40;99.90
51337;DHT22;37421;51.176;17.196;2022-11-15T13:24:38;19.30;99.90
51337;DHT22;37421;51.176;17.196;2022-11-15T13:27:26;19.20;99.90
51337;DHT22;37421;51.176;17.196;2022-11-15T13:29:59;19.10;99.90
51337;DHT22;37421;51.176;17.196;2022-11-15T13:32:26;19.00;99.90
51337;DHT22;37421;51.176;17.196;2022-11-15T13:34:57;19.00;99.90
51337;DHT22;37421;51.176;17.196;2022-11-15T13:37:29;18.90;99.90
51337;DHT22;37421;51.176;17.196;2022-11-15T13:40:15;18.90;99.90
51337;DHT22;37421;51.176;17.196;2022-11-15T13:42:59;18.80;99.90
51337;DHT22;37421;51.176;17.196;2022-11-15T13:45:39;18.90;99.90
51337;DHT22;37421;51.176;17.196;2022-11-15T13:48:23;18.80;99.90
51337;DHT22;37421;51.176;17.196;2022-11-15T13:50:49;18.80;99.90
51337;DHT22;37421;51.176;17.196;2022-11-15T13:53:19;18.80;99.90
51337;DHT22;37421;51.176;17.196;2022-11-15T13:55:55;18.80;99.90
51337;DHT22;37421;51.176;17.196;2022-11-15T13:58:23;18.80;99.90
51337;DHT22;37421;51.176;17.196;2022-11-15T14:01:11;18.70;99.90
51337;DHT22;37421;51.176;17.196;2022-11-15T14:04:04;18.60;99.90
51337;DHT22;37421;51.176;17.196;2022-11-15T14:06:51;18.50;99.90
51337;DHT22;37421;51.176;17.196;2022-11-15T14:09:52;18.50;99.90
51337;DHT22;37421;51.176;17.196;2022-11-15T14:12:37;18.50;99.90
51337;DHT22;37421;51.176;17.196;2022-11-15T14:21:31;18.50;99.90
51337;DHT22;37421;51.176;17.196;2022-11-15T14:24:21;18.50;99.90
51337;DHT22;37421;51.176;17.196;2022-11-15T14:27:25;18.50;99.90
51337;DHT22;37421;51.176;17.196;2022-11-15T14:29:59;18.60;99.90
51337;DHT22;37421;51.176;17.196;2022-11-15T14:32:37;18.50;99.90
51337;DHT22;37421;51.176;17.196;2022-11-15T14:35:18;18.50;99.90
51337;DHT22;37421;51.176;17.196;2022-11-15T14:37:58;18.60;99.90
51337;DHT22;37421;51.176;17.196;2022-11-15T14:40:33;18.50;99.90
51337;DHT22;37421;51.176;17.196;2022-11-15T14:43:12;18.40;99.90
51337;DHT22;37421;51.176;17.196;2022-11-15T14:45:47;18.30;99.90
51337;DHT22;37421;51.176;17.196;2022-11-15T14:48:13;18.30;99.90
51337;DHT22;37421;51.176;17.196;2022-11-15T14:50:42;18.30;99.90
51337;DHT22;37421;51.176;17.196;2022-11-15T14:56:12;18.40;99.90
51337;DHT22;37421;51.176;17.196;2022-11-15T14:58:48;18.40;99.90
51337;DHT22;37421;51.176;17.196;2022-11-15T15:01:27;18.30;99.90
51337;DHT22;37421;51.176;17.196;2022-11-15T15:03:58;18.30;99.90
51337;DHT22;37421;51.176;17.196;2022-11-15T15:06:37;18.30;99.90
51337;DHT22;37421;51.176;17.196;2022-11-15T15:09:12;18.30;99.90
51337;DHT22;37421;51.176;17.196;2022-11-15T15:12:01;18.30;99.90
51337;DHT22;37421;51.176;17.196;2022-11-15T15:14:38;18.30;99.90
51337;DHT22;37421;51.176;17.196;2022-11-15T15:20:06;18.40;99.90
51337;DHT22;37421;51.176;17.196;2022-11-15T15:22:41;18.40;99.90
51337;DHT22;37421;51.176;17.196;2022-11-15T15:25:23;18.40;99.90
51337;DHT22;37421;51.176;17.196;2022-11-15T15:27:55;18.40;99.90
51337;DHT22;37421;51.176;17.196;2022-11-15T15:30:22;18.30;99.90
51337;DHT22;37421;51.176;17.196;2022-11-15T15:33:00;18.20;99.90
51337;DHT22;37421;51.176;17.196;2022-11-15T15:35:31;18.30;99.90
51337;DHT22;37421;51.176;17.196;2022-11-15T15:38:14;18.30;99.90
51337;DHT22;37421;51.176;17.196;2022-11-15T15:40:48;18.40;99.90
51337;DHT22;37421;51.176;17.196;2022-11-15T15:43:19;18.40;99.90
51337;DHT22;37421;51.176;17.196;2022-11-15T15:46:28;18.40;99.90
51337;DHT22;37421;51.176;17.196;2022-11-15T15:49:01;18.40;99.90
51337;DHT22;37421;51.176;17.196;2022-11-15T15:51:33;18.40;99.90
51337;DHT22;37421;51.176;17.196;2022-11-15T15:54:13;18.40;99.90
51337;DHT22;37421;51.176;17.196;2022-11-15T15:57:11;18.40;99.90
51337;DHT22;37421;51.176;17.196;2022-11-15T16:00:10;18.40;99.90
51337;DHT22;37421;51.176;17.196;2022-11-15T16:03:15;18.30;99.90
51337;DHT22;37421;51.176;17.196;2022-11-15T16:05:51;18.30;99.90
51337;DHT22;37421;51.176;17.196;2022-11-15T16:08:24;18.30;99.90
51337;DHT22;37421;51.176;17.196;2022-11-15T16:10:58;18.30;99.90
51337;DHT22;37421;51.176;17.196;2022-11-15T16:20:12;18.20;99.90
51337;DHT22;37421;51.176;17.196;2022-11-15T16:25:34;18.20;99.90
51337;DHT22;37421;51.176;17.196;2022-11-15T16:28:38;18.20;99.90
51337;DHT22;37421;51.176;17.196;2022-11-15T16:31:27;18.30;99.90
51337;DHT22;37421;51.176;17.196;2022-11-15T16:33:53;18.30;99.90
51337;DHT22;37421;51.176;17.196;2022-11-15T16:36:35;18.40;99.90
51337;DHT22;37421;51.176;17.196;2022-11-15T16:39:11;18.40;99.90
51337;DHT22;37421;51.176;17.196;2022-11-15T16:41:44;18.30;99.90
51337;DHT22;37421;51.176;17.196;2022-11-15T16:44:12;18.30;99.90
51337;DHT22;37421;51.176;17.196;2022-11-15T16:46:43;18.40;99.90
51337;DHT22;37421;51.176;17.196;2022-11-15T16:49:40;18.40;99.90
51337;DHT22;37421;51.176;17.196;2022-11-15T16:52:39;18.40;99.90
51337;DHT22;37421;51.176;17.196;2022-11-15T16:55:17;18.30;99.90
51337;DHT22;37421;51.176;17.196;2022-11-15T16:58:03;18.40;99.90
51337;DHT22;37421;51.176;17.196;2022-11-15T17:00:51;18.40;99.90
51337;DHT22;37421;51.176;17.196;2022-11-15T17:04:01;18.40;99.90
51337;DHT22;37421;51.176;17.196;2022-11-15T17:06:56;18.40;99.90
51337;DHT22;37421;51.176;17.196;2022-11-15T17:09:47;18.40;99.90
51337;DHT22;37421;51.176;17.196;2022-11-15T17:12:15;18.40;99.90
51337;DHT22;37421;51.176;17.196;2022-11-15T17:15:00;18.30;99.90
51337;DHT22;37421;51.176;17.196;2022-11-15T17:18:21;18.30;99.90
51337;DHT22;37421;51.176;17.196;2022-11-15T17:27:40;18.40;99.90
51337;DHT22;37421;51.176;17.196;2022-11-15T17:30:14;18.40;99.90
51337;DHT22;37421;51.176;17.196;2022-11-15T17:33:01;18.40;99.90
51337;DHT22;37421;51.176;17.196;2022-11-15T17:35:54;18.40;99.90
51337;DHT22;37421;51.176;17.196;2022-11-15T17:44:40;18.40;99.90
51337;DHT22;37421;51.176;17.196;2022-11-15T17:51:25;18.40;99.90
51337;DHT22;37421;51.176;17.196;2022-11-15T17:54:21;18.40;99.90
51337;DHT22;37421;51.176;17.196;2022-11-15T18:00:01;18.40;99.90
51337;DHT22;37421;51.176;17.196;2022-11-15T18:03:03;18.40;99.90
51337;DHT22;37421;51.176;17.196;2022-11-15T18:05:40;18.40;99.90
51337;DHT22;37421;51.176;17.196;2022-11-15T18:11:34;18.40;99.90
51337;DHT22;37421;51.176;17.196;2022-11-15T18:14:02;18.40;99.90
51337;DHT22;37421;51.176;17.196;2022-11-15T18:16:50;18.40;99.90
51337;DHT22;37421;51.176;17.196;2022-11-15T18:19:28;18.30;99.90
51337;DHT22;37421;51.176;17.196;2022-11-15T18:21:54;18.30;99.90
51337;DHT22;37421;51.176;17.196;2022-11-15T18:24:36;18.30;99.90
51337;DHT22;37421;51.176;17.196;2022-11-15T18:27:09;18.30;99.90
51337;DHT22;37421;51.176;17.196;2022-11-15T18:29:35;18.40;99.90
51337;DHT22;37421;51.176;17.196;2022-11-15T18:32:04;18.40;99.90
51337;DHT22;37421;51.176;17.196;2022-11-15T18:34:36;18.50;99.90
51337;DHT22;37421;51.176;17.196;2022-11-15T18:37:02;18.50;99.90
51337;DHT22;37421;51.176;17.196;2022-11-15T18:39:28;18.50;99.90
51337;DHT22;37421;51.176;17.196;2022-11-15T18:41:54;18.50;99.90
51337;DHT22;37421;51.176;17.196;2022-11-15T18:44:30;18.50;99.90
51337;DHT22;37421;51.176;17.196;2022-11-15T18:46:59;18.50;99.90
51337;DHT22;37421;51.176;17.196;2022-11-15T18:49:51;18.50;99.90
51337;DHT22;37421;51.176;17.196;2022-11-15T18:52:57;18.40;99.90
51337;DHT22;37421;51.176;17.196;2022-11-15T18:55:42;18.50;99.90
51337;DHT22;37421;51.176;17.196;2022-11-15T18:58:09;18.50;99.90
51337;DHT22;37421;51.176;17.196;2022-11-15T19:00:34;18.50;99.90
51337;DHT22;37421;51.176;17.196;2022-11-15T19:03:00;18.50;99.90
51337;DHT22;37421;51.176;17.196;2022-11-15T19:05:29;18.60;99.90
51337;DHT22;37421;51.176;17.196;2022-11-15T19:07:58;18.50;99.90
51337;DHT22;37421;51.176;17.196;2022-11-15T19:10:24;18.50;99.90
51337;DHT22;37421;51.176;17.196;2022-11-15T19:12:54;18.50;99.90
51337;DHT22;37421;51.176;17.196;2022-11-15T19:15:23;18.50;99.90
51337;DHT22;37421;51.176;17.196;2022-11-15T19:17:57;18.50;99.90
51337;DHT22;37421;51.176;17.196;2022-11-15T19:20:28;18.50;99.90
51337;DHT22;37421;51.176;17.196;2022-11-15T19:23:05;18.50;99.90
51337;DHT22;37421;51.176;17.196;2022-11-15T19:25:56;18.50;99.90
51337;DHT22;37421;51.176;17.196;2022-11-15T19:28:30;18.60;99.90
51337;DHT22;37421;51.176;17.196;2022-11-15T19:31:11;18.50;99.90
51337;DHT22;37421;51.176;17.196;2022-11-15T19:33:45;18.60;99.90
51337;DHT22;37421;51.176;17.196;2022-11-15T19:36:17;18.60;99.90
51337;DHT22;37421;51.176;17.196;2022-11-15T19:38:44;18.60;99.90
51337;DHT22;37421;51.176;17.196;2022-11-15T19:41:13;18.60;99.90
51337;DHT22;37421;51.176;17.196;2022-11-15T19:43:39;18.60;99.90
51337;DHT22;37421;51.176;17.196;2022-11-15T19:46:08;18.60;99.90
51337;DHT22;37421;51.176;17.196;2022-11-15T19:48:44;18.70;99.90
51337;DHT22;37421;51.176;17.196;2022-11-15T19:51:12;18.70;99.90
51337;DHT22;37421;51.176;17.196;2022-11-15T19:53:39;18.70;99.90
51337;DHT22;37421;51.176;17.196;2022-11-15T19:56:13;18.70;99.90
51337;DHT22;37421;51.176;17.196;2022-11-15T19:58:40;18.60;99.90